sensor_id;sensor_type;location;lat;lon;timestamp;P1;durP1;ratioP1;P2;durP2;ratioP2
79570;SDS011;69034;49.444;7.758;2023-06-14T00:03:27;8.27;;;3.28;;
79570;SDS011;69034;49.444;7.758;2023-06-14T00:07:38;6.15;;;3.20;;
79570;SDS011;69034;49.444;7.758;2023-06-14T00:11:42;6.43;;;2.97;;
79570;SDS011;69034;49.444;7.758;2023-06-14T00:15:45;6.38;;;3.25;;
79570;SDS011;69034;49.444;7.758;2023-06-14T00:19:46;7.85;;;3.50;;
79570;SDS011;69034;49.444;7.758;2023-06-14T00:23:47;5.80;;;3.30;;
79570;SDS011;69034;49.444;7.758;2023-06-14T00:27:47;5.68;;;2.95;;
79570;SDS011;69034;49.444;7.758;2023-06-14T00:31:48;6.85;;;2.92;;
79570;SDS011;69034;49.444;7.758;2023-06-14T00:35:49;5.30;;;2.92;;
79570;SDS011;69034;49.444;7.758;2023-06-14T00:39:50;6.63;;;3.63;;
79570;SDS011;69034;49.444;7.758;2023-06-14T00:43:51;6.03;;;3.35;;
79570;SDS011;69034;49.444;7.758;2023-06-14T00:47:52;6.78;;;3.30;;
79570;SDS011;69034;49.444;7.758;2023-06-14T00:51:55;7.65;;;3.05;;
79570;SDS011;69034;49.444;7.758;2023-06-14T00:55:55;4.97;;;2.72;;
79570;SDS011;69034;49.444;7.758;2023-06-14T00:59:56;5.13;;;2.53;;
79570;SDS011;69034;49.444;7.758;2023-06-14T01:03:57;5.22;;;2.88;;
79570;SDS011;69034;49.444;7.758;2023-06-14T01:12:15;6.55;;;3.00;;
79570;SDS011;69034;49.444;7.758;2023-06-14T01:16:24;6.50;;;2.97;;
79570;SDS011;69034;49.444;7.758;2023-06-14T01:20:27;5.18;;;3.05;;
79570;SDS011;69034;49.444;7.758;2023-06-14T01:24:32;6.22;;;3.33;;
79570;SDS011;69034;49.444;7.758;2023-06-14T01:28:35;7.55;;;2.92;;
79570;SDS011;69034;49.444;7.758;2023-06-14T01:32:37;5.22;;;2.78;;
79570;SDS011;69034;49.444;7.758;2023-06-14T01:36:37;5.88;;;2.92;;
79570;SDS011;69034;49.444;7.758;2023-06-14T01:40:42;5.18;;;3.05;;
79570;SDS011;69034;49.444;7.758;2023-06-14T01:44:44;5.22;;;2.75;;
79570;SDS011;69034;49.444;7.758;2023-06-14T01:48:47;5.75;;;2.85;;
79570;SDS011;69034;49.444;7.758;2023-06-14T01:52:48;7.60;;;3.53;;
79570;SDS011;69034;49.444;7.758;2023-06-14T01:56:49;8.02;;;3.17;;
79570;SDS011;69034;49.444;7.758;2023-06-14T02:00:50;5.90;;;2.90;;
79570;SDS011;69034;49.444;7.758;2023-06-14T02:04:53;9.43;;;3.58;;
79570;SDS011;69034;49.444;7.758;2023-06-14T02:08:57;6.97;;;3.40;;
79570;SDS011;69034;49.444;7.758;2023-06-14T02:12:57;6.38;;;3.00;;
79570;SDS011;69034;49.444;7.758;2023-06-14T02:16:58;7.13;;;3.20;;
79570;SDS011;69034;49.444;7.758;2023-06-14T02:21:01;9.15;;;3.13;;
79570;SDS011;69034;49.444;7.758;2023-06-14T02:25:02;7.38;;;3.33;;
79570;SDS011;69034;49.444;7.758;2023-06-14T02:29:03;4.97;;;2.78;;
79570;SDS011;69034;49.444;7.758;2023-06-14T02:33:09;5.28;;;3.03;;
79570;SDS011;69034;49.444;7.758;2023-06-14T02:37:12;7.10;;;3.45;;
79570;SDS011;69034;49.444;7.758;2023-06-14T02:41:13;7.72;;;3.38;;
79570;SDS011;69034;49.444;7.758;2023-06-14T02:45:15;6.75;;;3.55;;
79570;SDS011;69034;49.444;7.758;2023-06-14T02:49:16;7.75;;;3.22;;
79570;SDS011;69034;49.444;7.758;2023-06-14T02:53:16;5.78;;;3.10;;
79570;SDS011;69034;49.444;7.758;2023-06-14T02:57:17;5.15;;;3.03;;
79570;SDS011;69034;49.444;7.758;2023-06-14T03:01:17;4.93;;;2.70;;
79570;SDS011;69034;49.444;7.758;2023-06-14T03:05:19;5.88;;;3.30;;
79570;SDS011;69034;49.444;7.758;2023-06-14T03:09:21;5.47;;;2.95;;
79570;SDS011;69034;49.444;7.758;2023-06-14T03:13:22;7.28;;;3.58;;
79570;SDS011;69034;49.444;7.758;2023-06-14T03:17:22;5.82;;;3.33;;
79570;SDS011;69034;49.444;7.758;2023-06-14T03:21:24;6.93;;;3.33;;
79570;SDS011;69034;49.444;7.758;2023-06-14T03:25:26;6.32;;;3.42;;
79570;SDS011;69034;49.444;7.758;2023-06-14T03:29:29;5.43;;;3.25;;
79570;SDS011;69034;49.444;7.758;2023-06-14T03:33:31;5.50;;;2.80;;
79570;SDS011;69034;49.444;7.758;2023-06-14T03:37:32;6.35;;;3.40;;
79570;SDS011;69034;49.444;7.758;2023-06-14T03:41:32;5.78;;;3.15;;
79570;SDS011;69034;49.444;7.758;2023-06-14T03:45:33;5.38;;;3.13;;
79570;SDS011;69034;49.444;7.758;2023-06-14T03:49:33;7.20;;;3.45;;
79570;SDS011;69034;49.444;7.758;2023-06-14T03:53:36;5.05;;;2.67;;
79570;SDS011;69034;49.444;7.758;2023-06-14T03:57:37;5.18;;;3.20;;
79570;SDS011;69034;49.444;7.758;2023-06-14T04:01:38;6.20;;;3.53;;
79570;SDS011;69034;49.444;7.758;2023-06-14T04:05:46;7.43;;;3.40;;
79570;SDS011;69034;49.444;7.758;2023-06-14T04:09:49;4.95;;;3.03;;
79570;SDS011;69034;49.444;7.758;2023-06-14T04:13:50;6.55;;;3.67;;
79570;SDS011;69034;49.444;7.758;2023-06-14T04:17:53;5.18;;;3.22;;
79570;SDS011;69034;49.444;7.758;2023-06-14T04:21:57;8.18;;;3.60;;
79570;SDS011;69034;49.444;7.758;2023-06-14T04:26:02;7.80;;;3.63;;
79570;SDS011;69034;49.444;7.758;2023-06-14T04:30:03;5.95;;;3.47;;
79570;SDS011;69034;49.444;7.758;2023-06-14T04:34:04;5.45;;;3.28;;
79570;SDS011;69034;49.444;7.758;2023-06-14T04:38:05;9.98;;;3.42;;
79570;SDS011;69034;49.444;7.758;2023-06-14T04:42:09;6.55;;;3.25;;
79570;SDS011;69034;49.444;7.758;2023-06-14T04:46:11;6.00;;;3.38;;
79570;SDS011;69034;49.444;7.758;2023-06-14T04:50:14;6.85;;;3.95;;
79570;SDS011;69034;49.444;7.758;2023-06-14T04:54:16;7.65;;;3.90;;
79570;SDS011;69034;49.444;7.758;2023-06-14T04:58:18;10.20;;;3.95;;
79570;SDS011;69034;49.444;7.758;2023-06-14T05:02:19;7.72;;;4.55;;
79570;SDS011;69034;49.444;7.758;2023-06-14T05:06:20;8.77;;;4.20;;
79570;SDS011;69034;49.444;7.758;2023-06-14T05:10:21;7.03;;;4.03;;
79570;SDS011;69034;49.444;7.758;2023-06-14T05:14:22;6.05;;;3.83;;
79570;SDS011;69034;49.444;7.758;2023-06-14T05:18:25;8.13;;;3.90;;
79570;SDS011;69034;49.444;7.758;2023-06-14T05:22:26;6.43;;;3.85;;
79570;SDS011;69034;49.444;7.758;2023-06-14T05:26:27;6.60;;;3.75;;
79570;SDS011;69034;49.444;7.758;2023-06-14T05:30:30;13.23;;;3.95;;
79570;SDS011;69034;49.444;7.758;2023-06-14T05:34:33;12.57;;;3.97;;
79570;SDS011;69034;49.444;7.758;2023-06-14T05:38:34;7.63;;;3.65;;
79570;SDS011;69034;49.444;7.758;2023-06-14T05:42:34;9.13;;;3.70;;
79570;SDS011;69034;49.444;7.758;2023-06-14T05:46:35;6.72;;;3.63;;
79570;SDS011;69034;49.444;7.758;2023-06-14T05:50:35;15.65;;;3.70;;
79570;SDS011;69034;49.444;7.758;2023-06-14T05:54:36;7.10;;;3.65;;
79570;SDS011;69034;49.444;7.758;2023-06-14T05:58:37;8.60;;;3.72;;
79570;SDS011;69034;49.444;7.758;2023-06-14T06:02:40;7.18;;;3.47;;
79570;SDS011;69034;49.444;7.758;2023-06-14T06:06:44;8.27;;;3.65;;
79570;SDS011;69034;49.444;7.758;2023-06-14T06:10:46;8.23;;;3.67;;
79570;SDS011;69034;49.444;7.758;2023-06-14T06:14:47;7.47;;;3.50;;
79570;SDS011;69034;49.444;7.758;2023-06-14T06:18:50;5.85;;;3.13;;
79570;SDS011;69034;49.444;7.758;2023-06-14T06:22:52;5.30;;;2.90;;
79570;SDS011;69034;49.444;7.758;2023-06-14T06:26:53;7.70;;;3.60;;
79570;SDS011;69034;49.444;7.758;2023-06-14T06:30:54;8.45;;;3.08;;
79570;SDS011;69034;49.444;7.758;2023-06-14T06:34:55;5.97;;;3.05;;
79570;SDS011;69034;49.444;7.758;2023-06-14T06:38:55;4.55;;;2.28;;
79570;SDS011;69034;49.444;7.758;2023-06-14T06:42:56;5.93;;;2.85;;
79570;SDS011;69034;49.444;7.758;2023-06-14T06:46:57;5.38;;;2.67;;
79570;SDS011;69034;49.444;7.758;2023-06-14T06:50:58;8.27;;;3.50;;
79570;SDS011;69034;49.444;7.758;2023-06-14T06:54:58;6.43;;;3.33;;
79570;SDS011;69034;49.444;7.758;2023-06-14T06:58:59;5.75;;;2.90;;
79570;SDS011;69034;49.444;7.758;2023-06-14T07:03:00;7.68;;;3.22;;
79570;SDS011;69034;49.444;7.758;2023-06-14T07:07:01;7.28;;;2.70;;
79570;SDS011;69034;49.444;7.758;2023-06-14T07:11:02;5.05;;;2.88;;
79570;SDS011;69034;49.444;7.758;2023-06-14T07:15:05;11.65;;;2.78;;
79570;SDS011;69034;49.444;7.758;2023-06-14T07:19:09;5.35;;;2.92;;
79570;SDS011;69034;49.444;7.758;2023-06-14T07:23:10;7.50;;;3.25;;
79570;SDS011;69034;49.444;7.758;2023-06-14T07:27:11;7.80;;;3.10;;
79570;SDS011;69034;49.444;7.758;2023-06-14T07:31:13;5.15;;;2.70;;
79570;SDS011;69034;49.444;7.758;2023-06-14T07:35:15;6.88;;;3.47;;
79570;SDS011;69034;49.444;7.758;2023-06-14T07:39:15;6.90;;;2.90;;
79570;SDS011;69034;49.444;7.758;2023-06-14T07:43:16;8.98;;;3.45;;
79570;SDS011;69034;49.444;7.758;2023-06-14T07:47:16;8.88;;;3.53;;
79570;SDS011;69034;49.444;7.758;2023-06-14T07:51:17;5.97;;;2.97;;
79570;SDS011;69034;49.444;7.758;2023-06-14T07:55:18;8.63;;;3.10;;
79570;SDS011;69034;49.444;7.758;2023-06-14T07:59:19;5.85;;;2.90;;
79570;SDS011;69034;49.444;7.758;2023-06-14T08:03:19;6.40;;;3.30;;
79570;SDS011;69034;49.444;7.758;2023-06-14T08:07:20;5.38;;;2.90;;
79570;SDS011;69034;49.444;7.758;2023-06-14T08:11:21;5.57;;;2.83;;
79570;SDS011;69034;49.444;7.758;2023-06-14T08:15:24;8.27;;;3.75;;
79570;SDS011;69034;49.444;7.758;2023-06-14T08:19:25;4.70;;;2.95;;
79570;SDS011;69034;49.444;7.758;2023-06-14T08:23:25;6.60;;;3.20;;
79570;SDS011;69034;49.444;7.758;2023-06-14T08:27:27;4.68;;;2.80;;
79570;SDS011;69034;49.444;7.758;2023-06-14T08:31:27;10.00;;;3.50;;
79570;SDS011;69034;49.444;7.758;2023-06-14T08:35:28;7.07;;;2.53;;
79570;SDS011;69034;49.444;7.758;2023-06-14T08:39:29;6.82;;;3.45;;
79570;SDS011;69034;49.444;7.758;2023-06-14T08:43:29;10.88;;;2.95;;
79570;SDS011;69034;49.444;7.758;2023-06-14T08:47:33;4.07;;;2.67;;
79570;SDS011;69034;49.444;7.758;2023-06-14T08:51:37;7.25;;;3.30;;
79570;SDS011;69034;49.444;7.758;2023-06-14T08:55:38;7.70;;;3.08;;
79570;SDS011;69034;49.444;7.758;2023-06-14T08:59:43;6.13;;;3.35;;
79570;SDS011;69034;49.444;7.758;2023-06-14T09:03:49;8.30;;;2.90;;
79570;SDS011;69034;49.444;7.758;2023-06-14T09:07:50;4.90;;;2.90;;
79570;SDS011;69034;49.444;7.758;2023-06-14T09:11:51;5.25;;;2.55;;
79570;SDS011;69034;49.444;7.758;2023-06-14T09:15:52;6.15;;;2.38;;
79570;SDS011;69034;49.444;7.758;2023-06-14T09:19:56;4.90;;;2.70;;
79570;SDS011;69034;49.444;7.758;2023-06-14T09:23:58;5.30;;;2.63;;
79570;SDS011;69034;49.444;7.758;2023-06-14T09:28:00;8.80;;;2.65;;
79570;SDS011;69034;49.444;7.758;2023-06-14T09:32:00;7.10;;;2.60;;
79570;SDS011;69034;49.444;7.758;2023-06-14T09:36:01;7.55;;;2.50;;
79570;SDS011;69034;49.444;7.758;2023-06-14T09:40:03;6.03;;;2.63;;
79570;SDS011;69034;49.444;7.758;2023-06-14T09:44:05;4.80;;;2.65;;
79570;SDS011;69034;49.444;7.758;2023-06-14T09:48:11;4.95;;;2.42;;
79570;SDS011;69034;49.444;7.758;2023-06-14T09:52:17;6.30;;;2.53;;
79570;SDS011;69034;49.444;7.758;2023-06-14T09:56:22;5.90;;;2.50;;
79570;SDS011;69034;49.444;7.758;2023-06-14T10:00:29;5.97;;;2.33;;
79570;SDS011;69034;49.444;7.758;2023-06-14T10:04:33;7.40;;;2.40;;
79570;SDS011;69034;49.444;7.758;2023-06-14T10:08:35;4.28;;;2.33;;
79570;SDS011;69034;49.444;7.758;2023-06-14T10:12:37;4.57;;;2.53;;
79570;SDS011;69034;49.444;7.758;2023-06-14T10:16:52;5.10;;;2.60;;
79570;SDS011;69034;49.444;7.758;2023-06-14T10:21:06;5.00;;;2.28;;
79570;SDS011;69034;49.444;7.758;2023-06-14T10:25:31;8.40;;;2.40;;
79570;SDS011;69034;49.444;7.758;2023-06-14T10:29:32;5.07;;;2.10;;
79570;SDS011;69034;49.444;7.758;2023-06-14T10:33:33;5.07;;;2.05;;
79570;SDS011;69034;49.444;7.758;2023-06-14T10:37:34;8.32;;;2.30;;
79570;SDS011;69034;49.444;7.758;2023-06-14T10:41:37;4.93;;;2.00;;
79570;SDS011;69034;49.444;7.758;2023-06-14T10:45:42;5.13;;;2.55;;
79570;SDS011;69034;49.444;7.758;2023-06-14T10:54:16;3.40;;;1.90;;
79570;SDS011;69034;49.444;7.758;2023-06-14T10:58:17;5.68;;;2.10;;
79570;SDS011;69034;49.444;7.758;2023-06-14T11:06:46;6.28;;;3.25;;
79570;SDS011;69034;49.444;7.758;2023-06-14T11:10:48;5.18;;;2.33;;
79570;SDS011;69034;49.444;7.758;2023-06-14T11:14:50;4.00;;;2.20;;
79570;SDS011;69034;49.444;7.758;2023-06-14T11:18:51;3.60;;;2.20;;
79570;SDS011;69034;49.444;7.758;2023-06-14T11:22:52;6.82;;;2.10;;
79570;SDS011;69034;49.444;7.758;2023-06-14T11:26:55;5.25;;;2.28;;
79570;SDS011;69034;49.444;7.758;2023-06-14T11:31:00;3.53;;;1.92;;
79570;SDS011;69034;49.444;7.758;2023-06-14T11:35:02;6.85;;;2.05;;
79570;SDS011;69034;49.444;7.758;2023-06-14T11:39:05;3.63;;;1.75;;
79570;SDS011;69034;49.444;7.758;2023-06-14T11:43:11;5.20;;;2.10;;
79570;SDS011;69034;49.444;7.758;2023-06-14T11:47:13;6.22;;;2.25;;
79570;SDS011;69034;49.444;7.758;2023-06-14T11:51:13;3.80;;;2.00;;
79570;SDS011;69034;49.444;7.758;2023-06-14T11:55:14;5.40;;;2.13;;
79570;SDS011;69034;49.444;7.758;2023-06-14T11:59:15;4.00;;;2.10;;
79570;SDS011;69034;49.444;7.758;2023-06-14T12:03:16;4.18;;;1.98;;
79570;SDS011;69034;49.444;7.758;2023-06-14T12:07:17;4.55;;;2.42;;
79570;SDS011;69034;49.444;7.758;2023-06-14T12:11:20;5.90;;;2.53;;
79570;SDS011;69034;49.444;7.758;2023-06-14T12:15:20;5.10;;;2.38;;
79570;SDS011;69034;49.444;7.758;2023-06-14T12:19:25;8.57;;;2.03;;
79570;SDS011;69034;49.444;7.758;2023-06-14T12:23:26;4.97;;;2.20;;
79570;SDS011;69034;49.444;7.758;2023-06-14T12:27:27;4.05;;;2.03;;
79570;SDS011;69034;49.444;7.758;2023-06-14T12:31:28;4.55;;;1.70;;
79570;SDS011;69034;49.444;7.758;2023-06-14T12:35:29;4.68;;;2.15;;
79570;SDS011;69034;49.444;7.758;2023-06-14T12:39:30;5.25;;;2.20;;
79570;SDS011;69034;49.444;7.758;2023-06-14T12:43:34;5.05;;;2.08;;
79570;SDS011;69034;49.444;7.758;2023-06-14T12:47:35;4.57;;;2.53;;
79570;SDS011;69034;49.444;7.758;2023-06-14T12:51:36;3.10;;;1.90;;
79570;SDS011;69034;49.444;7.758;2023-06-14T12:55:37;3.83;;;1.90;;
79570;SDS011;69034;49.444;7.758;2023-06-14T12:59:37;4.38;;;1.92;;
79570;SDS011;69034;49.444;7.758;2023-06-14T13:03:41;4.30;;;1.75;;
79570;SDS011;69034;49.444;7.758;2023-06-14T13:07:42;3.53;;;1.70;;
79570;SDS011;69034;49.444;7.758;2023-06-14T13:11:42;3.63;;;1.50;;
79570;SDS011;69034;49.444;7.758;2023-06-14T13:15:45;5.43;;;1.70;;
79570;SDS011;69034;49.444;7.758;2023-06-14T13:19:46;3.10;;;1.48;;
79570;SDS011;69034;49.444;7.758;2023-06-14T13:23:47;5.03;;;1.67;;
79570;SDS011;69034;49.444;7.758;2023-06-14T13:27:48;5.53;;;1.88;;
79570;SDS011;69034;49.444;7.758;2023-06-14T13:31:48;12.32;;;1.90;;
79570;SDS011;69034;49.444;7.758;2023-06-14T13:35:49;3.42;;;1.75;;
79570;SDS011;69034;49.444;7.758;2023-06-14T13:39:52;5.63;;;1.83;;
79570;SDS011;69034;49.444;7.758;2023-06-14T13:43:53;3.38;;;1.60;;
79570;SDS011;69034;49.444;7.758;2023-06-14T13:47:54;3.47;;;1.63;;
79570;SDS011;69034;49.444;7.758;2023-06-14T13:51:55;2.17;;;1.35;;
79570;SDS011;69034;49.444;7.758;2023-06-14T13:55:56;4.75;;;1.42;;
79570;SDS011;69034;49.444;7.758;2023-06-14T13:59:57;5.82;;;1.60;;
79570;SDS011;69034;49.444;7.758;2023-06-14T14:04:01;5.22;;;1.30;;
79570;SDS011;69034;49.444;7.758;2023-06-14T14:08:02;3.53;;;1.40;;
79570;SDS011;69034;49.444;7.758;2023-06-14T14:12:04;2.17;;;1.27;;
79570;SDS011;69034;49.444;7.758;2023-06-14T14:16:05;4.68;;;2.03;;
79570;SDS011;69034;49.444;7.758;2023-06-14T14:20:06;4.10;;;1.50;;
79570;SDS011;69034;49.444;7.758;2023-06-14T14:24:07;3.38;;;1.70;;
79570;SDS011;69034;49.444;7.758;2023-06-14T14:28:08;3.42;;;1.58;;
79570;SDS011;69034;49.444;7.758;2023-06-14T14:32:08;4.97;;;1.80;;
79570;SDS011;69034;49.444;7.758;2023-06-14T14:36:13;2.75;;;1.40;;
79570;SDS011;69034;49.444;7.758;2023-06-14T14:40:14;3.95;;;1.50;;
79570;SDS011;69034;49.444;7.758;2023-06-14T14:44:15;3.33;;;1.58;;
79570;SDS011;69034;49.444;7.758;2023-06-14T14:48:15;4.10;;;1.75;;
79570;SDS011;69034;49.444;7.758;2023-06-14T14:52:16;4.15;;;1.50;;
79570;SDS011;69034;49.444;7.758;2023-06-14T14:56:17;4.35;;;2.10;;
79570;SDS011;69034;49.444;7.758;2023-06-14T15:00:17;5.85;;;1.58;;
79570;SDS011;69034;49.444;7.758;2023-06-14T15:04:18;3.83;;;1.75;;
79570;SDS011;69034;49.444;7.758;2023-06-14T15:08:19;4.78;;;1.80;;
79570;SDS011;69034;49.444;7.758;2023-06-14T15:12:24;3.90;;;1.77;;
79570;SDS011;69034;49.444;7.758;2023-06-14T15:16:24;3.72;;;1.58;;
79570;SDS011;69034;49.444;7.758;2023-06-14T15:20:26;5.35;;;1.67;;
79570;SDS011;69034;49.444;7.758;2023-06-14T15:24:28;3.72;;;1.73;;
79570;SDS011;69034;49.444;7.758;2023-06-14T15:28:30;4.57;;;1.75;;
79570;SDS011;69034;49.444;7.758;2023-06-14T15:32:32;2.72;;;1.48;;
79570;SDS011;69034;49.444;7.758;2023-06-14T15:36:33;4.07;;;2.05;;
79570;SDS011;69034;49.444;7.758;2023-06-14T15:40:33;3.72;;;1.90;;
79570;SDS011;69034;49.444;7.758;2023-06-14T15:44:34;2.63;;;1.58;;
79570;SDS011;69034;49.444;7.758;2023-06-14T15:48:37;3.80;;;1.95;;
79570;SDS011;69034;49.444;7.758;2023-06-14T15:52:38;5.65;;;1.77;;
79570;SDS011;69034;49.444;7.758;2023-06-14T15:56:38;4.00;;;2.03;;
79570;SDS011;69034;49.444;7.758;2023-06-14T16:00:39;4.45;;;1.92;;
79570;SDS011;69034;49.444;7.758;2023-06-14T16:04:42;4.72;;;1.70;;
79570;SDS011;69034;49.444;7.758;2023-06-14T16:08:44;3.47;;;1.88;;
79570;SDS011;69034;49.444;7.758;2023-06-14T16:12:46;3.45;;;1.58;;
79570;SDS011;69034;49.444;7.758;2023-06-14T16:16:47;4.85;;;1.95;;
79570;SDS011;69034;49.444;7.758;2023-06-14T16:20:50;4.90;;;1.95;;
79570;SDS011;69034;49.444;7.758;2023-06-14T16:24:52;4.18;;;1.90;;
79570;SDS011;69034;49.444;7.758;2023-06-14T16:28:52;3.50;;;2.28;;
79570;SDS011;69034;49.444;7.758;2023-06-14T16:32:53;4.75;;;2.45;;
79570;SDS011;69034;49.444;7.758;2023-06-14T16:36:54;3.85;;;2.08;;
79570;SDS011;69034;49.444;7.758;2023-06-14T16:40:55;4.65;;;2.03;;
79570;SDS011;69034;49.444;7.758;2023-06-14T16:44:56;5.60;;;2.25;;
79570;SDS011;69034;49.444;7.758;2023-06-14T16:48:58;5.43;;;2.30;;
79570;SDS011;69034;49.444;7.758;2023-06-14T16:52:59;4.93;;;2.55;;
79570;SDS011;69034;49.444;7.758;2023-06-14T16:57:00;8.48;;;2.70;;
79570;SDS011;69034;49.444;7.758;2023-06-14T17:01:01;4.03;;;2.25;;
79570;SDS011;69034;49.444;7.758;2023-06-14T17:05:03;5.93;;;2.17;;
79570;SDS011;69034;49.444;7.758;2023-06-14T17:09:05;5.05;;;2.60;;
79570;SDS011;69034;49.444;7.758;2023-06-14T17:13:05;9.32;;;2.15;;
79570;SDS011;69034;49.444;7.758;2023-06-14T17:17:06;5.90;;;2.80;;
79570;SDS011;69034;49.444;7.758;2023-06-14T17:21:06;5.72;;;2.28;;
79570;SDS011;69034;49.444;7.758;2023-06-14T17:25:08;4.70;;;2.05;;
79570;SDS011;69034;49.444;7.758;2023-06-14T17:29:09;5.95;;;2.38;;
79570;SDS011;69034;49.444;7.758;2023-06-14T17:33:10;5.50;;;2.30;;
79570;SDS011;69034;49.444;7.758;2023-06-14T17:37:11;4.80;;;2.35;;
79570;SDS011;69034;49.444;7.758;2023-06-14T17:41:11;4.57;;;2.10;;
79570;SDS011;69034;49.444;7.758;2023-06-14T17:45:29;6.05;;;2.00;;
79570;SDS011;69034;49.444;7.758;2023-06-14T17:49:44;7.78;;;2.20;;
79570;SDS011;69034;49.444;7.758;2023-06-14T17:53:45;7.40;;;2.47;;
79570;SDS011;69034;49.444;7.758;2023-06-14T17:57:46;4.18;;;2.05;;
79570;SDS011;69034;49.444;7.758;2023-06-14T18:01:48;4.40;;;2.10;;
79570;SDS011;69034;49.444;7.758;2023-06-14T18:05:49;4.78;;;2.60;;
79570;SDS011;69034;49.444;7.758;2023-06-14T18:09:50;5.85;;;2.40;;
79570;SDS011;69034;49.444;7.758;2023-06-14T18:13:50;3.53;;;1.50;;
79570;SDS011;69034;49.444;7.758;2023-06-14T18:17:53;4.68;;;1.95;;
79570;SDS011;69034;49.444;7.758;2023-06-14T18:21:55;5.78;;;2.53;;
79570;SDS011;69034;49.444;7.758;2023-06-14T18:25:58;6.25;;;2.00;;
79570;SDS011;69034;49.444;7.758;2023-06-14T18:29:59;5.47;;;1.92;;
79570;SDS011;69034;49.444;7.758;2023-06-14T18:34:00;4.43;;;2.13;;
79570;SDS011;69034;49.444;7.758;2023-06-14T18:38:00;3.33;;;1.90;;
79570;SDS011;69034;49.444;7.758;2023-06-14T18:42:03;4.93;;;2.55;;
79570;SDS011;69034;49.444;7.758;2023-06-14T18:46:04;3.65;;;2.15;;
79570;SDS011;69034;49.444;7.758;2023-06-14T18:50:05;3.72;;;2.25;;
79570;SDS011;69034;49.444;7.758;2023-06-14T18:54:06;3.58;;;1.85;;
79570;SDS011;69034;49.444;7.758;2023-06-14T18:58:09;4.28;;;1.90;;
79570;SDS011;69034;49.444;7.758;2023-06-14T19:02:11;3.95;;;2.15;;
79570;SDS011;69034;49.444;7.758;2023-06-14T19:06:12;3.67;;;1.90;;
79570;SDS011;69034;49.444;7.758;2023-06-14T19:10:13;4.60;;;2.10;;
79570;SDS011;69034;49.444;7.758;2023-06-14T19:14:14;4.00;;;1.90;;
79570;SDS011;69034;49.444;7.758;2023-06-14T19:18:14;5.78;;;1.85;;
79570;SDS011;69034;49.444;7.758;2023-06-14T19:22:15;4.22;;;1.83;;
79570;SDS011;69034;49.444;7.758;2023-06-14T19:26:15;4.03;;;2.13;;
79570;SDS011;69034;49.444;7.758;2023-06-14T19:30:17;10.40;;;1.98;;
79570;SDS011;69034;49.444;7.758;2023-06-14T19:34:18;4.55;;;1.85;;
79570;SDS011;69034;49.444;7.758;2023-06-14T19:38:20;6.50;;;2.47;;
79570;SDS011;69034;49.444;7.758;2023-06-14T19:42:20;5.75;;;2.33;;
79570;SDS011;69034;49.444;7.758;2023-06-14T19:46:21;4.43;;;2.20;;
79570;SDS011;69034;49.444;7.758;2023-06-14T19:50:25;4.78;;;2.35;;
79570;SDS011;69034;49.444;7.758;2023-06-14T19:54:30;3.67;;;1.83;;
79570;SDS011;69034;49.444;7.758;2023-06-14T19:58:31;4.82;;;2.10;;
79570;SDS011;69034;49.444;7.758;2023-06-14T20:02:32;6.38;;;2.03;;
79570;SDS011;69034;49.444;7.758;2023-06-14T20:06:33;3.92;;;1.95;;
79570;SDS011;69034;49.444;7.758;2023-06-14T20:10:34;5.22;;;2.00;;
79570;SDS011;69034;49.444;7.758;2023-06-14T20:14:37;4.05;;;1.80;;
79570;SDS011;69034;49.444;7.758;2023-06-14T20:18:38;4.03;;;2.10;;
79570;SDS011;69034;49.444;7.758;2023-06-14T20:22:39;8.50;;;2.92;;
79570;SDS011;69034;49.444;7.758;2023-06-14T20:26:41;3.72;;;1.63;;
79570;SDS011;69034;49.444;7.758;2023-06-14T20:30:42;4.15;;;1.70;;
79570;SDS011;69034;49.444;7.758;2023-06-14T20:34:43;4.57;;;2.17;;
79570;SDS011;69034;49.444;7.758;2023-06-14T20:38:44;4.30;;;1.95;;
79570;SDS011;69034;49.444;7.758;2023-06-14T20:42:45;4.88;;;1.80;;
79570;SDS011;69034;49.444;7.758;2023-06-14T20:46:46;4.05;;;1.90;;
79570;SDS011;69034;49.444;7.758;2023-06-14T20:50:47;3.72;;;2.15;;
79570;SDS011;69034;49.444;7.758;2023-06-14T20:54:48;8.20;;;2.35;;
79570;SDS011;69034;49.444;7.758;2023-06-14T20:58:48;4.88;;;2.17;;
79570;SDS011;69034;49.444;7.758;2023-06-14T21:02:51;4.15;;;1.95;;
79570;SDS011;69034;49.444;7.758;2023-06-14T21:06:52;4.07;;;2.13;;
79570;SDS011;69034;49.444;7.758;2023-06-14T21:10:53;6.10;;;3.35;;
79570;SDS011;69034;49.444;7.758;2023-06-14T21:15:01;7.13;;;3.90;;
79570;SDS011;69034;49.444;7.758;2023-06-14T21:19:03;8.75;;;3.88;;
79570;SDS011;69034;49.444;7.758;2023-06-14T21:23:04;7.38;;;3.92;;
79570;SDS011;69034;49.444;7.758;2023-06-14T21:27:05;7.20;;;4.03;;
79570;SDS011;69034;49.444;7.758;2023-06-14T21:31:07;7.22;;;4.10;;
79570;SDS011;69034;49.444;7.758;2023-06-14T21:35:10;5.97;;;3.53;;
79570;SDS011;69034;49.444;7.758;2023-06-14T21:39:16;5.18;;;3.22;;
79570;SDS011;69034;49.444;7.758;2023-06-14T21:43:17;5.63;;;2.90;;
79570;SDS011;69034;49.444;7.758;2023-06-14T21:47:21;7.10;;;3.17;;
79570;SDS011;69034;49.444;7.758;2023-06-14T21:51:22;5.47;;;2.67;;
79570;SDS011;69034;49.444;7.758;2023-06-14T21:55:22;4.60;;;2.65;;
79570;SDS011;69034;49.444;7.758;2023-06-14T21:59:25;8.05;;;3.10;;
79570;SDS011;69034;49.444;7.758;2023-06-14T22:03:26;5.07;;;3.05;;
79570;SDS011;69034;49.444;7.758;2023-06-14T22:07:27;5.93;;;2.47;;
79570;SDS011;69034;49.444;7.758;2023-06-14T22:11:31;5.05;;;2.58;;
79570;SDS011;69034;49.444;7.758;2023-06-14T22:15:34;4.20;;;2.40;;
79570;SDS011;69034;49.444;7.758;2023-06-14T22:19:34;4.88;;;2.78;;
79570;SDS011;69034;49.444;7.758;2023-06-14T22:23:37;6.00;;;2.70;;
79570;SDS011;69034;49.444;7.758;2023-06-14T22:27:37;5.15;;;2.35;;
79570;SDS011;69034;49.444;7.758;2023-06-14T22:31:47;4.32;;;2.10;;
79570;SDS011;69034;49.444;7.758;2023-06-14T22:36:26;3.42;;;1.83;;
79570;SDS011;69034;49.444;7.758;2023-06-14T22:40:26;4.43;;;2.20;;
79570;SDS011;69034;49.444;7.758;2023-06-14T22:44:28;6.90;;;2.20;;
79570;SDS011;69034;49.444;7.758;2023-06-14T22:48:33;4.10;;;2.20;;
79570;SDS011;69034;49.444;7.758;2023-06-14T22:57:46;5.82;;;2.70;;
79570;SDS011;69034;49.444;7.758;2023-06-14T23:01:48;6.10;;;2.22;;
79570;SDS011;69034;49.444;7.758;2023-06-14T23:05:50;4.65;;;2.22;;
79570;SDS011;69034;49.444;7.758;2023-06-14T23:09:51;4.65;;;1.92;;
79570;SDS011;69034;49.444;7.758;2023-06-14T23:13:56;5.00;;;2.78;;
79570;SDS011;69034;49.444;7.758;2023-06-14T23:17:58;3.60;;;2.10;;
79570;SDS011;69034;49.444;7.758;2023-06-14T23:21:59;5.13;;;1.92;;
79570;SDS011;69034;49.444;7.758;2023-06-14T23:26:02;5.25;;;2.03;;
79570;SDS011;69034;49.444;7.758;2023-06-14T23:30:04;4.05;;;2.00;;
79570;SDS011;69034;49.444;7.758;2023-06-14T23:34:06;4.30;;;2.22;;
79570;SDS011;69034;49.444;7.758;2023-06-14T23:38:07;3.90;;;2.05;;
79570;SDS011;69034;49.444;7.758;2023-06-14T23:42:12;4.07;;;2.25;;
79570;SDS011;69034;49.444;7.758;2023-06-14T23:46:13;4.40;;;2.30;;
79570;SDS011;69034;49.444;7.758;2023-06-14T23:50:15;4.10;;;2.03;;
79570;SDS011;69034;49.444;7.758;2023-06-14T23:54:17;4.78;;;2.33;;
79570;SDS011;69034;49.444;7.758;2023-06-14T23:58:22;4.25;;;2.50;;
